Time;durP1;ratioP1;P1;durP2;ratioP2;P2;SDS_P1;SDS_P2;PMS_P1;PMS_P2;Temp;Humidity;BMP_temperature;BMP_pressure;BME280_temperature;BME280_humidity;BME280_pressure;Samples;Min_cycle;Max_cycle;Signal;HPM_P1;HPM_P2
2022/01/18 00:00:39;;;;;;;17.07;4.83;;;;;;;;;;5046879;28;20180;-55
2022/01/18 00:03:06;;;;;;;13.07;4.87;;;;;;;;;;5047959;28;20181;-54
2022/01/18 00:05:32;;;;;;;11.87;3.80;;;;;;;;;;5047726;28;20637;-55
2022/01/18 00:07:58;;;;;;;13.17;3.80;;;;;;;;;;5048656;28;20223;-53
2022/01/18 00:10:28;;;;;;;10.63;4.03;;;;;;;;;;5047384;28;20216;-54
2022/01/18 00:23:22;;;;;;;11.03;4.23;;;;;;;;;;5038576;28;20539;-54
2022/01/18 00:25:52;;;;;;;9.90;3.77;;;;;;;;;;5047643;28;20326;-54
2022/01/18 00:28:26;;;;;;;15.83;3.90;;;;;;;;;;5047853;28;20572;-56
2022/01/18 00:34:18;;;;;;;7.80;3.60;;;;;;;;;;5046837;28;20214;-53
2022/01/18 00:39:06;;;;;;;12.47;3.90;;;;;;;;;;5047039;28;20195;-55
2022/01/18 00:41:33;;;;;;;8.40;3.63;;;;;;;;;;5047398;28;20262;-55
2022/01/18 00:43:59;;;;;;;15.13;4.50;;;;;;;;;;5050343;28;20212;-55
2022/01/18 00:46:26;;;;;;;9.17;3.77;;;;;;;;;;5049791;28;20184;-55
2022/01/18 00:48:55;;;;;;;9.60;4.03;;;;;;;;;;5051648;28;20656;-56
2022/01/18 00:51:21;;;;;;;14.60;4.47;;;;;;;;;;5050907;28;20285;-52
2022/01/18 00:53:47;;;;;;;13.73;4.33;;;;;;;;;;5050157;28;20288;-53
2022/01/18 00:56:29;;;;;;;7.47;3.70;;;;;;;;;;5049774;28;20200;-54
2022/01/18 00:58:59;;;;;;;8.57;4.10;;;;;;;;;;5050725;28;20189;-56
2022/01/18 01:01:28;;;;;;;12.43;3.83;;;;;;;;;;5051530;28;20180;-53
2022/01/18 01:03:58;;;;;;;8.30;3.20;;;;;;;;;;5049373;28;20185;-53
2022/01/18 01:06:27;;;;;;;14.43;4.00;;;;;;;;;;5051735;28;20181;-56
2022/01/18 01:08:53;;;;;;;8.93;4.10;;;;;;;;;;5049925;28;20185;-55
2022/01/18 01:11:20;;;;;;;13.33;4.27;;;;;;;;;;5051178;28;20183;-53
2022/01/18 01:13:48;;;;;;;10.73;3.93;;;;;;;;;;5051679;28;20193;-55
2022/01/18 01:16:38;;;;;;;10.33;3.47;;;;;;;;;;5050614;28;20180;-57
2022/01/18 01:44:01;;;;;;;8.60;3.50;;;;;;;;;;5049352;28;20184;-56
2022/01/18 01:46:26;;;;;;;13.83;4.47;;;;;;;;;;5049379;28;20185;-57
2022/01/18 01:48:55;;;;;;;9.10;4.40;;;;;;;;;;5051040;28;20165;-57
2022/01/18 01:51:29;;;;;;;11.63;3.70;;;;;;;;;;5049450;28;20224;-57
2022/01/18 01:54:03;;;;;;;7.97;3.77;;;;;;;;;;5044936;28;20236;-56
2022/01/18 01:56:30;;;;;;;11.17;3.87;;;;;;;;;;5039370;28;20197;-57
2022/01/18 01:58:57;;;;;;;10.40;3.77;;;;;;;;;;5048994;28;20185;-56
2022/01/18 02:01:23;;;;;;;15.17;4.37;;;;;;;;;;5049350;28;20169;-57
2022/01/18 02:03:50;;;;;;;7.30;3.20;;;;;;;;;;5048608;28;20220;-57
2022/01/18 02:06:17;;;;;;;9.83;3.83;;;;;;;;;;5048506;28;20177;-56
2022/01/18 02:08:44;;;;;;;9.77;3.73;;;;;;;;;;5048103;28;20177;-56
2022/01/18 02:11:11;;;;;;;13.10;3.97;;;;;;;;;;5049117;28;20204;-56
2022/01/18 02:13:38;;;;;;;9.73;4.50;;;;;;;;;;5047773;28;20196;-55
2022/01/18 02:21:46;;;;;;;8.87;3.60;;;;;;;;;;5050278;28;20204;-55
2022/01/18 02:24:05;;;;;;;9.43;3.83;;;;;;;;;;5048533;28;20181;-54
2022/01/18 02:26:32;;;;;;;10.63;3.77;;;;;;;;;;5048101;28;20188;-55
2022/01/18 02:29:02;;;;;;;9.73;3.40;;;;;;;;;;5047832;28;20619;-57
2022/01/18 02:31:29;;;;;;;7.37;3.13;;;;;;;;;;5049990;28;20177;-57
2022/01/18 02:33:56;;;;;;;12.73;3.93;;;;;;;;;;5048530;28;20410;-57
2022/01/18 02:36:22;;;;;;;10.13;3.97;;;;;;;;;;5049910;28;20177;-57
2022/01/18 02:38:48;;;;;;;10.67;3.93;;;;;;;;;;5050250;28;20175;-56
2022/01/18 02:41:25;;;;;;;10.67;4.03;;;;;;;;;;5047592;28;20170;-57
2022/01/18 02:43:55;;;;;;;7.80;3.10;;;;;;;;;;5049989;28;20195;-57
2022/01/18 02:46:21;;;;;;;10.60;4.60;;;;;;;;;;5048291;28;20197;-56
2022/01/18 02:48:48;;;;;;;4.97;2.53;;;;;;;;;;5029738;28;20182;-57
2022/01/18 02:51:14;;;;;;;11.77;4.27;;;;;;;;;;5059541;28;20238;-56
2022/01/18 02:53:53;;;;;;;13.70;4.60;;;;;;;;;;5055203;28;20655;-56
2022/01/18 02:56:19;;;;;;;7.73;3.70;;;;;;;;;;5062512;28;20195;-57
2022/01/18 02:58:45;;;;;;;10.53;3.83;;;;;;;;;;5071605;28;20174;-57
2022/01/18 03:03:58;;;;;;;7.53;3.43;;;;;;;;;;5056771;28;20245;-57
2022/01/18 03:06:27;;;;;;;7.80;4.23;;;;;;;;;;5069348;28;20656;-57
2022/01/18 03:08:55;;;;;;;9.60;3.40;;;;;;;;;;5072254;28;20176;-55
2022/01/18 03:11:22;;;;;;;9.40;3.70;;;;;;;;;;5089393;28;20707;-56
2022/01/18 03:13:48;;;;;;;10.67;3.03;;;;;;;;;;5071820;28;20196;-57
2022/01/18 03:16:17;;;;;;;9.90;3.67;;;;;;;;;;5086389;28;20604;-57
2022/01/18 03:18:43;;;;;;;7.83;2.83;;;;;;;;;;5088697;28;20531;-57
2022/01/18 03:21:11;;;;;;;10.63;3.97;;;;;;;;;;5108716;28;20542;-56
2022/01/18 03:23:38;;;;;;;10.30;3.63;;;;;;;;;;5071166;28;20184;-57
2022/01/18 03:26:14;;;;;;;8.07;3.33;;;;;;;;;;5090515;28;20174;-54
2022/01/18 03:28:40;;;;;;;9.80;3.30;;;;;;;;;;5098701;28;20186;-55
2022/01/18 03:31:07;;;;;;;9.27;3.33;;;;;;;;;;5069218;28;20184;-54
2022/01/18 03:33:34;;;;;;;8.50;2.73;;;;;;;;;;5087917;28;20664;-54
2022/01/18 03:36:01;;;;;;;9.90;3.23;;;;;;;;;;5071079;28;20233;-55
2022/01/18 03:38:33;;;;;;;8.10;2.60;;;;;;;;;;5070275;28;20206;-55
2022/01/18 03:41:01;;;;;;;7.27;3.07;;;;;;;;;;5073176;28;20172;-55
2022/01/18 03:43:29;;;;;;;8.07;2.63;;;;;;;;;;5086702;28;20266;-57
2022/01/18 03:46:00;;;;;;;7.63;3.10;;;;;;;;;;5090637;28;20278;-57
2022/01/18 03:48:31;;;;;;;12.33;3.53;;;;;;;;;;5086489;28;20274;-57
2022/01/18 03:50:57;;;;;;;10.37;2.70;;;;;;;;;;5091794;28;20685;-57
2022/01/18 03:53:27;;;;;;;11.10;3.37;;;;;;;;;;5069257;28;20219;-57
2022/01/18 03:55:56;;;;;;;9.67;3.17;;;;;;;;;;5069672;28;20237;-57
2022/01/18 03:58:23;;;;;;;9.13;2.87;;;;;;;;;;5074292;28;20228;-57
2022/01/18 04:00:50;;;;;;;7.47;2.33;;;;;;;;;;5070976;28;20585;-56
2022/01/18 04:03:19;;;;;;;9.30;2.83;;;;;;;;;;5070662;28;20210;-57
2022/01/18 04:05:46;;;;;;;10.70;2.73;;;;;;;;;;5069976;28;20194;-57
2022/01/18 04:08:15;;;;;;;8.33;3.57;;;;;;;;;;5090797;28;20253;-55
2022/01/18 04:10:41;;;;;;;6.27;2.83;;;;;;;;;;5073176;28;20191;-55
2022/01/18 04:13:10;;;;;;;6.77;3.57;;;;;;;;;;5099815;28;20642;-54
2022/01/18 04:15:36;;;;;;;8.40;2.40;;;;;;;;;;5081258;28;20198;-54
2022/01/18 04:18:11;;;;;;;8.70;2.83;;;;;;;;;;5087967;28;20547;-55
2022/01/18 04:28:56;;;;;;;5.30;2.77;;;;;;;;;;5091805;28;20229;-57
2022/01/18 04:31:22;;;;;;;10.03;3.47;;;;;;;;;;5081350;28;20179;-57
2022/01/18 04:33:49;;;;;;;6.43;2.50;;;;;;;;;;5085992;28;20670;-56
2022/01/18 04:36:15;;;;;;;11.50;2.87;;;;;;;;;;5081753;28;20168;-57
2022/01/18 04:38:42;;;;;;;11.93;2.87;;;;;;;;;;5084786;28;20179;-57
2022/01/18 04:41:12;;;;;;;8.40;3.00;;;;;;;;;;5070775;28;20183;-57
2022/01/18 04:49:12;;;;;;;9.80;3.03;;;;;;;;;;5077578;28;20229;-57
2022/01/18 04:51:41;;;;;;;6.73;2.67;;;;;;;;;;5089297;28;20231;-57
2022/01/18 04:54:09;;;;;;;6.63;2.57;;;;;;;;;;5069167;28;20215;-57
2022/01/18 04:59:03;;;;;;;8.87;3.33;;;;;;;;;;5087158;28;20357;-57
2022/01/18 05:01:29;;;;;;;7.13;2.30;;;;;;;;;;5068541;28;20665;-56
2022/01/18 05:03:55;;;;;;;10.03;3.27;;;;;;;;;;5069792;28;20611;-57
2022/01/18 05:06:25;;;;;;;4.53;2.57;;;;;;;;;;5069881;28;20191;-57
2022/01/18 05:08:51;;;;;;;9.37;2.30;;;;;;;;;;5053423;28;20188;-57
2022/01/18 05:11:20;;;;;;;6.27;2.63;;;;;;;;;;5070632;28;20187;-56
2022/01/18 05:14:12;;;;;;;10.87;3.13;;;;;;;;;;5087125;28;20250;-57
2022/01/18 05:24:18;;;;;;;6.13;2.63;;;;;;;;;;5080079;28;20729;-56
2022/01/18 05:26:44;;;;;;;8.27;3.30;;;;;;;;;;5068224;28;20184;-57
2022/01/18 05:29:11;;;;;;;8.10;2.67;;;;;;;;;;5073036;28;20188;-57
2022/01/18 05:31:37;;;;;;;9.67;2.83;;;;;;;;;;5066701;28;20194;-57
2022/01/18 05:34:04;;;;;;;8.63;2.93;;;;;;;;;;5088361;28;20200;-57
2022/01/18 05:36:31;;;;;;;13.43;3.37;;;;;;;;;;5074412;28;20263;-57
2022/01/18 05:38:59;;;;;;;11.73;2.83;;;;;;;;;;5080865;28;20183;-57
2022/01/18 05:41:25;;;;;;;8.60;3.37;;;;;;;;;;5071576;28;20182;-57
2022/01/18 05:43:52;;;;;;;8.70;4.13;;;;;;;;;;5072157;28;20416;-57
2022/01/18 05:46:18;;;;;;;9.97;3.83;;;;;;;;;;5071295;28;20194;-57
2022/01/18 05:48:44;;;;;;;11.23;3.33;;;;;;;;;;5067916;28;20583;-57
2022/01/18 05:51:11;;;;;;;10.00;3.30;;;;;;;;;;5068921;28;20213;-57
2022/01/18 05:53:39;;;;;;;6.57;3.73;;;;;;;;;;5072039;28;20199;-57
2022/01/18 05:56:08;;;;;;;9.60;3.83;;;;;;;;;;5069755;28;20195;-57
2022/01/18 05:58:34;;;;;;;9.10;3.50;;;;;;;;;;5052257;28;20579;-57
2022/01/18 06:01:01;;;;;;;7.83;3.57;;;;;;;;;;5070756;28;20175;-56
2022/01/18 06:03:32;;;;;;;10.57;3.57;;;;;;;;;;5088502;28;20259;-57
2022/01/18 06:08:47;;;;;;;9.07;4.23;;;;;;;;;;5064649;28;20270;-57
2022/01/18 06:11:13;;;;;;;12.70;4.33;;;;;;;;;;5085764;28;20181;-57
2022/01/18 06:13:39;;;;;;;10.97;4.40;;;;;;;;;;5076423;28;20682;-55
2022/01/18 06:16:06;;;;;;;11.53;5.40;;;;;;;;;;5089382;28;20168;-55
2022/01/18 06:18:32;;;;;;;11.43;4.20;;;;;;;;;;5050484;28;20230;-55
2022/01/18 06:20:59;;;;;;;8.60;4.10;;;;;;;;;;5067349;28;20215;-55
2022/01/18 06:23:25;;;;;;;8.07;4.03;;;;;;;;;;5074580;28;20180;-55
2022/01/18 06:25:51;;;;;;;11.60;4.70;;;;;;;;;;5069898;28;20202;-55
2022/01/18 06:28:18;;;;;;;11.10;4.87;;;;;;;;;;5071757;28;20164;-55
2022/01/18 06:30:47;;;;;;;13.17;4.30;;;;;;;;;;5070701;28;20252;-55
2022/01/18 06:33:13;;;;;;;10.13;5.10;;;;;;;;;;5071065;28;20172;-55
2022/01/18 06:35:39;;;;;;;11.43;4.10;;;;;;;;;;5085392;28;20195;-57
2022/01/18 06:38:08;;;;;;;13.63;4.93;;;;;;;;;;5072032;28;20182;-57
2022/01/18 06:40:34;;;;;;;9.57;4.17;;;;;;;;;;5074642;28;20188;-56
2022/01/18 06:43:00;;;;;;;9.00;4.80;;;;;;;;;;5062838;28;20199;-56
2022/01/18 06:45:27;;;;;;;10.97;4.53;;;;;;;;;;5070235;28;20180;-57
2022/01/18 06:47:53;;;;;;;10.20;5.10;;;;;;;;;;5070928;28;20175;-57
2022/01/18 06:50:19;;;;;;;14.30;5.10;;;;;;;;;;5070509;28;20257;-57
2022/01/18 06:52:48;;;;;;;7.97;4.23;;;;;;;;;;5089011;28;20231;-57
2022/01/18 06:55:15;;;;;;;8.40;4.67;;;;;;;;;;5089105;28;20215;-57
2022/01/18 06:57:41;;;;;;;11.13;5.37;;;;;;;;;;5086681;28;20317;-57
2022/01/18 07:00:08;;;;;;;10.70;4.73;;;;;;;;;;5085029;28;20183;-57
2022/01/18 07:02:34;;;;;;;16.57;6.03;;;;;;;;;;5086926;28;20615;-57
2022/01/18 07:05:00;;;;;;;11.93;5.47;;;;;;;;;;5084129;28;20552;-57
2022/01/18 07:07:26;;;;;;;11.07;4.93;;;;;;;;;;5109767;28;20215;-57
2022/01/18 07:09:52;;;;;;;10.40;5.10;;;;;;;;;;5088938;28;20184;-57
2022/01/18 07:12:18;;;;;;;12.50;5.00;;;;;;;;;;5066361;28;20188;-57
2022/01/18 07:14:45;;;;;;;13.93;5.07;;;;;;;;;;5080554;28;20542;-57
2022/01/18 07:17:11;;;;;;;11.03;5.13;;;;;;;;;;5080275;28;20180;-57
2022/01/18 07:19:38;;;;;;;15.93;5.90;;;;;;;;;;5067980;28;20180;-57
2022/01/18 07:22:05;;;;;;;12.73;4.83;;;;;;;;;;5082183;28;20180;-57
2022/01/18 07:27:05;;;;;;;14.47;5.70;;;;;;;;;;5108572;28;20179;-57
2022/01/18 07:29:32;;;;;;;10.70;5.57;;;;;;;;;;5071735;28;20183;-57
2022/01/18 07:31:58;;;;;;;13.23;5.27;;;;;;;;;;5063501;28;20210;-57
2022/01/18 07:34:24;;;;;;;12.77;5.67;;;;;;;;;;5093902;28;20196;-57
2022/01/18 07:36:50;;;;;;;7.97;5.97;;;;;;;;;;5087386;28;20176;-56
2022/01/18 07:39:16;;;;;;;12.47;5.00;;;;;;;;;;5077416;28;20180;-57
2022/01/18 07:41:43;;;;;;;13.83;5.47;;;;;;;;;;5050210;28;20245;-57
2022/01/18 07:44:09;;;;;;;11.77;5.73;;;;;;;;;;5061832;28;20295;-56
2022/01/18 07:46:35;;;;;;;11.50;4.97;;;;;;;;;;5065574;28;20218;-57
2022/01/18 07:49:01;;;;;;;10.33;6.20;;;;;;;;;;5068919;28;20184;-57
2022/01/18 07:51:27;;;;;;;12.93;6.03;;;;;;;;;;5065118;28;20247;-56
2022/01/18 07:53:57;;;;;;;19.73;6.10;;;;;;;;;;5066828;28;20204;-57
2022/01/18 07:56:23;;;;;;;11.13;5.63;;;;;;;;;;5067652;28;20275;-57
2022/01/18 07:58:49;;;;;;;11.57;6.17;;;;;;;;;;5069881;28;20244;-57
2022/01/18 08:01:16;;;;;;;9.57;5.57;;;;;;;;;;5086263;28;20573;-57
2022/01/18 08:03:42;;;;;;;17.93;6.70;;;;;;;;;;5067203;28;20221;-57
2022/01/18 08:06:08;;;;;;;15.47;6.37;;;;;;;;;;5070423;28;20176;-57
2022/01/18 08:08:37;;;;;;;9.20;5.97;;;;;;;;;;5069373;28;20642;-57
2022/01/18 08:11:03;;;;;;;14.03;6.60;;;;;;;;;;5070588;28;20600;-57
2022/01/18 08:13:37;;;;;;;11.47;5.67;;;;;;;;;;5069790;28;20183;-57
2022/01/18 08:18:48;;;;;;;11.50;6.07;;;;;;;;;;5087738;28;20166;-57
2022/01/18 08:21:15;;;;;;;10.23;6.00;;;;;;;;;;5087867;28;20619;-57
2022/01/18 08:23:41;;;;;;;12.37;5.57;;;;;;;;;;5069000;28;20183;-57
2022/01/18 08:26:07;;;;;;;12.23;5.60;;;;;;;;;;5069542;28;20187;-57
2022/01/18 08:28:33;;;;;;;14.83;7.10;;;;;;;;;;5068983;28;20180;-57
2022/01/18 08:31:07;;;;;;;12.63;6.47;;;;;;;;;;5072904;28;20187;-57
2022/01/18 08:33:33;;;;;;;14.57;6.47;;;;;;;;;;5068949;28;20175;-57
2022/01/18 08:36:03;;;;;;;11.67;6.37;;;;;;;;;;5086497;28;20182;-57
2022/01/18 08:38:30;;;;;;;9.63;6.13;;;;;;;;;;5087533;28;20176;-57
2022/01/18 08:41:02;;;;;;;13.63;6.80;;;;;;;;;;5068642;28;20233;-57
2022/01/18 08:43:33;;;;;;;10.07;6.63;;;;;;;;;;5069618;28;20538;-57
2022/01/18 08:45:59;;;;;;;18.23;7.93;;;;;;;;;;5069133;28;20187;-57
2022/01/18 08:48:26;;;;;;;11.13;7.00;;;;;;;;;;5087169;28;20186;-57
2022/01/18 08:50:52;;;;;;;12.70;6.50;;;;;;;;;;5087715;28;20192;-57
2022/01/18 08:53:18;;;;;;;14.03;7.63;;;;;;;;;;5068581;28;20199;-57
2022/01/18 08:55:44;;;;;;;11.87;7.10;;;;;;;;;;5072904;28;20204;-57
2022/01/18 08:58:11;;;;;;;14.87;8.40;;;;;;;;;;5086519;28;20168;-57
2022/01/18 09:00:37;;;;;;;13.37;8.07;;;;;;;;;;5067217;28;20659;-57
2022/01/18 09:03:04;;;;;;;12.57;7.57;;;;;;;;;;5070745;28;20172;-57
2022/01/18 09:05:31;;;;;;;15.47;8.23;;;;;;;;;;5091391;28;20175;-57
2022/01/18 09:08:01;;;;;;;13.50;7.93;;;;;;;;;;5073587;28;20257;-57
2022/01/18 09:10:27;;;;;;;17.57;9.30;;;;;;;;;;5090279;28;20226;-57
2022/01/18 09:13:01;;;;;;;13.87;8.10;;;;;;;;;;5073081;28;20176;-57
2022/01/18 09:15:30;;;;;;;17.90;8.20;;;;;;;;;;5071084;28;20214;-57
2022/01/18 09:17:56;;;;;;;13.33;7.60;;;;;;;;;;5072698;28;20402;-57
2022/01/18 09:20:24;;;;;;;13.97;8.50;;;;;;;;;;5083368;28;20207;-57
2022/01/18 09:22:52;;;;;;;20.30;8.27;;;;;;;;;;5066783;28;20188;-57
2022/01/18 09:25:23;;;;;;;14.27;8.77;;;;;;;;;;5084863;28;20173;-57
2022/01/18 09:27:49;;;;;;;12.43;8.30;;;;;;;;;;5069810;28;20181;-57
2022/01/18 09:30:15;;;;;;;12.27;8.33;;;;;;;;;;5084888;28;20207;-57
2022/01/18 09:32:42;;;;;;;15.07;8.40;;;;;;;;;;5088761;28;20184;-57
2022/01/18 09:35:09;;;;;;;13.97;8.67;;;;;;;;;;5089391;28;20235;-57
2022/01/18 09:37:42;;;;;;;15.77;8.80;;;;;;;;;;5074964;28;20210;-57
2022/01/18 09:40:09;;;;;;;13.93;8.53;;;;;;;;;;5077207;28;20187;-57
2022/01/18 09:42:40;;;;;;;16.77;8.57;;;;;;;;;;5067291;28;20592;-57
2022/01/18 09:45:11;;;;;;;15.07;7.97;;;;;;;;;;5087033;28;20648;-57
2022/01/18 09:47:39;;;;;;;15.23;8.00;;;;;;;;;;5069864;28;20268;-57
2022/01/18 09:50:07;;;;;;;15.53;8.03;;;;;;;;;;5071803;28;20221;-57
2022/01/18 09:52:33;;;;;;;14.53;8.93;;;;;;;;;;5089849;28;20339;-57
2022/01/18 09:54:59;;;;;;;13.67;8.40;;;;;;;;;;5090219;28;20302;-57
2022/01/18 09:57:25;;;;;;;11.40;7.93;;;;;;;;;;5071414;28;20674;-57
2022/01/18 09:59:51;;;;;;;16.77;8.70;;;;;;;;;;5090481;28;20175;-57
2022/01/18 10:02:19;;;;;;;14.60;8.77;;;;;;;;;;5088706;28;20179;-57
2022/01/18 10:04:47;;;;;;;15.97;8.07;;;;;;;;;;5078135;28;20197;-57
2022/01/18 10:07:14;;;;;;;20.60;9.33;;;;;;;;;;5070425;28;20179;-57
2022/01/18 10:09:40;;;;;;;15.23;8.50;;;;;;;;;;5089569;28;20689;-57
2022/01/18 10:12:10;;;;;;;17.37;10.40;;;;;;;;;;5069920;28;20180;-57
2022/01/18 10:14:38;;;;;;;17.67;9.70;;;;;;;;;;5066543;28;20261;-57
2022/01/18 10:17:05;;;;;;;16.67;9.70;;;;;;;;;;5069175;28;20202;-57
2022/01/18 10:19:31;;;;;;;13.77;9.27;;;;;;;;;;5070710;28;20667;-57
2022/01/18 10:22:07;;;;;;;14.90;8.43;;;;;;;;;;5088009;28;20470;-57
2022/01/18 10:24:33;;;;;;;14.13;8.40;;;;;;;;;;5087569;28;20179;-57
2022/01/18 10:27:00;;;;;;;14.03;9.73;;;;;;;;;;5088101;28;20176;-57
2022/01/18 10:29:29;;;;;;;14.97;9.30;;;;;;;;;;5085316;28;20531;-57
2022/01/18 10:32:01;;;;;;;15.60;8.97;;;;;;;;;;5087971;28;20183;-57
2022/01/18 10:34:42;;;;;;;16.30;9.47;;;;;;;;;;5070643;28;20266;-56
2022/01/18 10:37:10;;;;;;;20.07;10.13;;;;;;;;;;5088943;28;20160;-56
2022/01/18 10:39:44;;;;;;;14.10;8.83;;;;;;;;;;5070354;28;20575;-55
2022/01/18 10:42:13;;;;;;;19.33;10.50;;;;;;;;;;5070112;28;20672;-55
2022/01/18 10:44:39;;;;;;;23.63;10.67;;;;;;;;;;5075669;28;20596;-55
2022/01/18 10:47:06;;;;;;;15.10;9.70;;;;;;;;;;5088124;28;20179;-55
2022/01/18 10:49:36;;;;;;;17.00;10.27;;;;;;;;;;5069118;28;20539;-55
2022/01/18 10:52:05;;;;;;;18.40;10.83;;;;;;;;;;5087838;28;20704;-55
2022/01/18 10:54:36;;;;;;;17.77;9.73;;;;;;;;;;5089007;28;20235;-55
2022/01/18 10:57:06;;;;;;;17.43;12.43;;;;;;;;;;5089540;28;20269;-55
2022/01/18 10:59:33;;;;;;;22.43;12.03;;;;;;;;;;5083704;28;20179;-57
2022/01/18 11:02:12;;;;;;;18.53;12.27;;;;;;;;;;5086790;28;20535;-57
2022/01/18 11:04:44;;;;;;;20.07;11.73;;;;;;;;;;5070552;28;20654;-57
2022/01/18 11:07:13;;;;;;;20.83;13.10;;;;;;;;;;5089325;28;20172;-57
2022/01/18 11:09:41;;;;;;;17.00;12.23;;;;;;;;;;5087851;28;20175;-57
2022/01/18 11:12:07;;;;;;;18.57;12.23;;;;;;;;;;5088949;28;20388;-55
2022/01/18 11:14:36;;;;;;;18.10;13.10;;;;;;;;;;5088903;28;20203;-55
2022/01/18 11:17:03;;;;;;;23.40;13.67;;;;;;;;;;5067469;28;20227;-55
2022/01/18 11:19:33;;;;;;;20.80;14.33;;;;;;;;;;5064802;28;20516;-55
2022/01/18 11:22:01;;;;;;;21.50;13.13;;;;;;;;;;5088747;28;20190;-55
2022/01/18 11:24:28;;;;;;;24.93;15.23;;;;;;;;;;5069928;28;20186;-55
2022/01/18 11:26:59;;;;;;;20.27;14.07;;;;;;;;;;5069561;28;20179;-56
2022/01/18 11:29:26;;;;;;;23.63;15.07;;;;;;;;;;5070307;28;20176;-55
2022/01/18 11:31:57;;;;;;;19.30;13.40;;;;;;;;;;5068457;28;20184;-55
2022/01/18 11:34:53;;;;;;;24.90;13.23;;;;;;;;;;5071113;28;20305;-55
2022/01/18 11:37:26;;;;;;;18.60;14.30;;;;;;;;;;5088615;28;20712;-55
2022/01/18 11:39:59;;;;;;;23.33;14.33;;;;;;;;;;5069985;28;20190;-56
2022/01/18 11:42:38;;;;;;;24.60;14.83;;;;;;;;;;5084611;28;20658;-55
2022/01/18 11:45:30;;;;;;;22.17;14.67;;;;;;;;;;5087715;28;20183;-55
2022/01/18 11:48:15;;;;;;;21.67;15.10;;;;;;;;;;5065972;28;20226;-56
2022/01/18 11:50:44;;;;;;;21.03;15.53;;;;;;;;;;5068905;28;20179;-56
2022/01/18 11:53:25;;;;;;;27.77;15.67;;;;;;;;;;5069454;28;20231;-56
2022/01/18 11:56:03;;;;;;;38.87;20.60;;;;;;;;;;5069874;28;20330;-56
2022/01/18 11:58:30;;;;;;;33.77;19.50;;;;;;;;;;5071625;28;20185;-55
2022/01/18 12:00:58;;;;;;;41.60;19.37;;;;;;;;;;5068599;28;20521;-55
2022/01/18 12:03:31;;;;;;;27.13;16.57;;;;;;;;;;5097020;28;20175;-55
2022/01/18 12:06:01;;;;;;;35.63;18.13;;;;;;;;;;5076029;28;20619;-55
2022/01/18 12:08:32;;;;;;;31.27;16.43;;;;;;;;;;5096309;28;20171;-56
2022/01/18 12:10:59;;;;;;;38.93;16.77;;;;;;;;;;5084849;28;20266;-55
2022/01/18 12:13:27;;;;;;;25.33;15.23;;;;;;;;;;5081065;28;20175;-55
2022/01/18 12:15:56;;;;;;;33.57;16.80;;;;;;;;;;5092804;28;20238;-55
2022/01/18 12:18:27;;;;;;;38.50;15.40;;;;;;;;;;5098855;28;20265;-55
2022/01/18 12:20:55;;;;;;;30.30;16.43;;;;;;;;;;5072657;28;20667;-56
2022/01/18 12:23:29;;;;;;;31.87;17.47;;;;;;;;;;5083850;28;20176;-56
2022/01/18 12:26:02;;;;;;;40.50;16.67;;;;;;;;;;5085163;28;20171;-56
2022/01/18 12:34:31;;;;;;;35.53;16.40;;;;;;;;;;5088002;28;20199;-56
2022/01/18 12:37:11;;;;;;;25.23;15.00;;;;;;;;;;5058547;28;20207;-56
2022/01/18 12:40:03;;;;;;;25.40;15.83;;;;;;;;;;5104937;28;20228;-56
2022/01/18 12:45:38;;;;;;;28.60;15.33;;;;;;;;;;5103661;28;20557;-56
2022/01/18 12:48:09;;;;;;;28.67;16.20;;;;;;;;;;5106093;28;20195;-55
2022/01/18 12:50:40;;;;;;;24.93;15.07;;;;;;;;;;5093814;28;20194;-56
2022/01/18 12:53:08;;;;;;;19.90;14.07;;;;;;;;;;5091038;28;20215;-56
2022/01/18 12:55:44;;;;;;;21.90;14.27;;;;;;;;;;5090999;28;20239;-55
2022/01/18 12:58:13;;;;;;;23.07;14.00;;;;;;;;;;5091526;28;20178;-55
2022/01/18 13:00:49;;;;;;;26.37;14.10;;;;;;;;;;5090844;28;20591;-56
2022/01/18 13:03:16;;;;;;;22.80;13.47;;;;;;;;;;5090154;28;20176;-56
2022/01/18 13:05:43;;;;;;;21.93;13.27;;;;;;;;;;5091038;28;20187;-56
2022/01/18 13:08:10;;;;;;;18.77;12.33;;;;;;;;;;5076461;28;20188;-56
2022/01/18 13:10:45;;;;;;;21.73;10.93;;;;;;;;;;5090944;28;20195;-55
2022/01/18 13:13:22;;;;;;;14.90;10.17;;;;;;;;;;5052448;28;20171;-56
2022/01/18 13:16:06;;;;;;;17.43;10.20;;;;;;;;;;5088501;28;20728;-56
2022/01/18 13:26:35;;;;;;;19.33;10.13;;;;;;;;;;5088571;28;20187;-56
2022/01/18 13:29:11;;;;;;;17.97;9.87;;;;;;;;;;5087567;28;20176;-56
2022/01/18 13:31:38;;;;;;;19.92;10.50;;;;;;;;;;5088339;28;20798;-56
2022/01/18 13:34:04;;;;;;;16.73;9.77;;;;;;;;;;5092317;28;20195;-56
2022/01/18 13:36:32;;;;;;;17.63;10.17;;;;;;;;;;5091055;28;20171;-56
2022/01/18 13:39:18;;;;;;;19.07;9.90;;;;;;;;;;5070794;28;20191;-56
2022/01/18 13:41:45;;;;;;;18.80;9.70;;;;;;;;;;5077941;28;20172;-56
2022/01/18 13:44:12;;;;;;;17.67;9.87;;;;;;;;;;5074603;28;20603;-55
2022/01/18 13:46:38;;;;;;;18.63;10.27;;;;;;;;;;5070333;28;20204;-56
2022/01/18 13:49:07;;;;;;;18.63;10.37;;;;;;;;;;5069691;28;20290;-56
2022/01/18 13:51:34;;;;;;;21.30;9.63;;;;;;;;;;5088888;28;20632;-56
2022/01/18 13:54:08;;;;;;;17.23;9.30;;;;;;;;;;5089894;28;20234;-55
2022/01/18 13:56:46;;;;;;;24.63;10.30;;;;;;;;;;5056055;28;20195;-56
2022/01/18 13:59:12;;;;;;;19.43;9.10;;;;;;;;;;5089557;28;20175;-55
2022/01/18 14:01:42;;;;;;;18.30;9.67;;;;;;;;;;5070902;28;20176;-55
2022/01/18 14:04:16;;;;;;;17.43;10.53;;;;;;;;;;5070751;28;20180;-56
2022/01/18 14:06:43;;;;;;;18.23;9.40;;;;;;;;;;5052337;28;20315;-56
2022/01/18 14:09:10;;;;;;;17.67;10.20;;;;;;;;;;5069218;28;20669;-56
2022/01/18 14:11:38;;;;;;;14.53;8.83;;;;;;;;;;5055822;28;20194;-56
2022/01/18 14:14:21;;;;;;;16.63;8.27;;;;;;;;;;5072773;28;20325;-55
2022/01/18 14:16:56;;;;;;;17.17;8.43;;;;;;;;;;5034350;28;20176;-56
2022/01/18 14:19:27;;;;;;;16.17;7.80;;;;;;;;;;5067864;28;20225;-56
2022/01/18 14:21:54;;;;;;;19.07;8.40;;;;;;;;;;5086571;28;20183;-56
2022/01/18 14:24:22;;;;;;;17.83;7.87;;;;;;;;;;5089552;28;20598;-56
2022/01/18 14:26:51;;;;;;;16.97;7.83;;;;;;;;;;5089575;28;20182;-56
2022/01/18 14:29:18;;;;;;;17.63;9.35;;;;;;;;;;5083742;28;20454;-56
2022/01/18 14:32:05;;;;;;;15.77;8.33;;;;;;;;;;5088120;28;20175;-56
2022/01/18 14:34:37;;;;;;;18.00;7.87;;;;;;;;;;5067234;28;20276;-56
2022/01/18 14:37:04;;;;;;;20.43;9.27;;;;;;;;;;5089702;28;20178;-56
2022/01/18 14:39:30;;;;;;;15.27;7.13;;;;;;;;;;5066886;28;20228;-55
2022/01/18 14:41:58;;;;;;;16.57;7.60;;;;;;;;;;5067579;28;20267;-55
2022/01/18 14:44:36;;;;;;;12.87;7.77;;;;;;;;;;5068455;28;20191;-55
2022/01/18 14:49:49;;;;;;;17.13;6.33;;;;;;;;;;5083279;28;20268;-55
2022/01/18 14:52:15;;;;;;;15.70;7.50;;;;;;;;;;5077371;28;20744;-56
2022/01/18 14:54:41;;;;;;;15.63;6.67;;;;;;;;;;5050169;28;20196;-55
2022/01/18 14:57:09;;;;;;;10.80;6.87;;;;;;;;;;5040311;28;20200;-55
2022/01/18 14:59:35;;;;;;;15.83;7.27;;;;;;;;;;5039317;28;20181;-56
2022/01/18 15:02:02;;;;;;;21.03;7.37;;;;;;;;;;5041847;28;20238;-55
2022/01/18 15:04:28;;;;;;;15.07;7.17;;;;;;;;;;5033688;28;20188;-55
2022/01/18 15:06:54;;;;;;;13.87;6.73;;;;;;;;;;5066724;28;20180;-56
2022/01/18 15:09:20;;;;;;;18.10;7.37;;;;;;;;;;5035459;28;20658;-55
2022/01/18 15:11:47;;;;;;;17.23;7.77;;;;;;;;;;5066307;28;20534;-55
2022/01/18 15:14:13;;;;;;;16.23;7.23;;;;;;;;;;5032464;28;20221;-56
2022/01/18 15:16:40;;;;;;;13.10;7.37;;;;;;;;;;5054808;28;20184;-55
2022/01/18 15:19:06;;;;;;;19.87;7.23;;;;;;;;;;5049249;28;20408;-55
2022/01/18 15:21:32;;;;;;;12.23;6.73;;;;;;;;;;5065934;28;20338;-55
2022/01/18 15:23:58;;;;;;;15.33;6.43;;;;;;;;;;5049326;28;20535;-56
2022/01/18 15:26:24;;;;;;;11.87;6.67;;;;;;;;;;5068055;28;20647;-63
2022/01/18 15:28:50;;;;;;;17.03;8.43;;;;;;;;;;5064491;28;20711;-56
2022/01/18 15:31:17;;;;;;;12.43;7.47;;;;;;;;;;5054392;28;20176;-57
2022/01/18 15:33:43;;;;;;;15.37;6.23;;;;;;;;;;5048471;28;20192;-56
2022/01/18 15:36:11;;;;;;;15.93;6.97;;;;;;;;;;5053556;28;20173;-58
2022/01/18 15:38:37;;;;;;;15.77;7.13;;;;;;;;;;5039468;28;20662;-55
2022/01/18 15:41:04;;;;;;;15.93;7.03;;;;;;;;;;5066909;28;20271;-56
2022/01/18 15:43:30;;;;;;;13.63;6.87;;;;;;;;;;5048755;28;20184;-56
2022/01/18 15:45:56;;;;;;;7.13;5.53;;;;;;;;;;5038078;28;20188;-56
2022/01/18 15:48:22;;;;;;;10.40;5.97;;;;;;;;;;5064537;28;20702;-56
2022/01/18 15:50:51;;;;;;;10.27;6.17;;;;;;;;;;5046568;28;20283;-56
2022/01/18 15:53:18;;;;;;;12.23;6.33;;;;;;;;;;5086800;28;20174;-56
2022/01/18 15:55:47;;;;;;;14.63;6.77;;;;;;;;;;5067238;28;20220;-56
2022/01/18 15:58:14;;;;;;;8.93;5.80;;;;;;;;;;5083350;28;20203;-56
2022/01/18 16:00:42;;;;;;;13.60;6.60;;;;;;;;;;5084480;28;20611;-56
2022/01/18 16:03:09;;;;;;;11.17;6.10;;;;;;;;;;5067081;28;20195;-56
2022/01/18 16:05:37;;;;;;;13.23;6.40;;;;;;;;;;5068208;28;20547;-56
2022/01/18 16:08:04;;;;;;;10.87;5.87;;;;;;;;;;5085552;28;20237;-56
2022/01/18 16:10:30;;;;;;;12.80;5.33;;;;;;;;;;5086632;28;20659;-56
2022/01/18 16:12:58;;;;;;;11.13;6.17;;;;;;;;;;5067017;28;20195;-56
2022/01/18 16:15:24;;;;;;;10.20;5.93;;;;;;;;;;5083883;28;20199;-55
2022/01/18 16:17:50;;;;;;;17.03;6.03;;;;;;;;;;5065683;28;20233;-56
2022/01/18 16:20:16;;;;;;;11.20;6.30;;;;;;;;;;5085401;28;20172;-56